sensor_id;sensor_type;location;lat;lon;timestamp;P1;durP1;ratioP1;P2;durP2;ratioP2
19547;SDS011;9919;58.014;11.826;2022-12-07T00:00:08;1.90;;;0.70;;
19547;SDS011;9919;58.014;11.826;2022-12-07T00:02:10;0.77;;;0.77;;
19547;SDS011;9919;58.014;11.826;2022-12-07T00:04:12;1.17;;;0.93;;
19547;SDS011;9919;58.014;11.826;2022-12-07T00:06:15;1.05;;;0.90;;
19547;SDS011;9919;58.014;11.826;2022-12-07T00:08:17;0.75;;;0.75;;
19547;SDS011;9919;58.014;11.826;2022-12-07T00:10:18;1.08;;;0.98;;
19547;SDS011;9919;58.014;11.826;2022-12-07T00:12:20;1.05;;;1.00;;
19547;SDS011;9919;58.014;11.826;2022-12-07T00:14:21;0.77;;;0.73;;
19547;SDS011;9919;58.014;11.826;2022-12-07T00:16:24;1.73;;;0.95;;
19547;SDS011;9919;58.014;11.826;2022-12-07T00:18:27;0.80;;;0.80;;
19547;SDS011;9919;58.014;11.826;2022-12-07T00:20:28;0.93;;;0.93;;
19547;SDS011;9919;58.014;11.826;2022-12-07T00:22:30;1.05;;;1.02;;
19547;SDS011;9919;58.014;11.826;2022-12-07T00:24:32;0.70;;;0.70;;
19547;SDS011;9919;58.014;11.826;2022-12-07T00:26:34;0.75;;;0.75;;
19547;SDS011;9919;58.014;11.826;2022-12-07T00:28:37;0.70;;;0.70;;
19547;SDS011;9919;58.014;11.826;2022-12-07T00:30:39;1.67;;;0.90;;
19547;SDS011;9919;58.014;11.826;2022-12-07T00:32:40;0.98;;;0.73;;
19547;SDS011;9919;58.014;11.826;2022-12-07T00:34:41;1.00;;;0.80;;
19547;SDS011;9919;58.014;11.826;2022-12-07T00:36:43;2.05;;;0.70;;
19547;SDS011;9919;58.014;11.826;2022-12-07T00:38:44;0.70;;;0.70;;
19547;SDS011;9919;58.014;11.826;2022-12-07T00:40:53;0.82;;;0.82;;
19547;SDS011;9919;58.014;11.826;2022-12-07T00:42:57;0.70;;;0.70;;
19547;SDS011;9919;58.014;11.826;2022-12-07T00:44:59;1.05;;;1.05;;
19547;SDS011;9919;58.014;11.826;2022-12-07T00:47:00;1.25;;;1.15;;
19547;SDS011;9919;58.014;11.826;2022-12-07T00:49:03;1.38;;;0.60;;
19547;SDS011;9919;58.014;11.826;2022-12-07T00:51:04;1.08;;;0.80;;
19547;SDS011;9919;58.014;11.826;2022-12-07T00:53:06;0.50;;;0.50;;
19547;SDS011;9919;58.014;11.826;2022-12-07T00:55:07;0.75;;;0.75;;
19547;SDS011;9919;58.014;11.826;2022-12-07T00:57:09;0.85;;;0.82;;
19547;SDS011;9919;58.014;11.826;2022-12-07T00:59:11;1.38;;;0.95;;
19547;SDS011;9919;58.014;11.826;2022-12-07T01:01:15;0.70;;;0.70;;
19547;SDS011;9919;58.014;11.826;2022-12-07T01:03:16;0.60;;;0.60;;
19547;SDS011;9919;58.014;11.826;2022-12-07T01:05:18;1.05;;;0.80;;
19547;SDS011;9919;58.014;11.826;2022-12-07T01:07:19;2.22;;;0.90;;
19547;SDS011;9919;58.014;11.826;2022-12-07T01:09:20;0.60;;;0.60;;
19547;SDS011;9919;58.014;11.826;2022-12-07T01:11:23;0.60;;;0.60;;
19547;SDS011;9919;58.014;11.826;2022-12-07T01:13:26;0.73;;;0.73;;
19547;SDS011;9919;58.014;11.826;2022-12-07T01:15:28;0.70;;;0.70;;
19547;SDS011;9919;58.014;11.826;2022-12-07T01:17:29;0.77;;;0.77;;
19547;SDS011;9919;58.014;11.826;2022-12-07T01:19:31;0.77;;;0.77;;
19547;SDS011;9919;58.014;11.826;2022-12-07T01:21:34;0.80;;;0.80;;
19547;SDS011;9919;58.014;11.826;2022-12-07T01:23:37;1.58;;;0.65;;
19547;SDS011;9919;58.014;11.826;2022-12-07T01:25:39;0.80;;;0.80;;
19547;SDS011;9919;58.014;11.826;2022-12-07T01:27:40;0.52;;;0.52;;
19547;SDS011;9919;58.014;11.826;2022-12-07T01:29:42;0.80;;;0.80;;
19547;SDS011;9919;58.014;11.826;2022-12-07T01:31:43;0.95;;;0.70;;
19547;SDS011;9919;58.014;11.826;2022-12-07T01:33:45;1.15;;;0.88;;
19547;SDS011;9919;58.014;11.826;2022-12-07T01:35:49;0.73;;;0.73;;
19547;SDS011;9919;58.014;11.826;2022-12-07T01:37:50;1.08;;;1.08;;
19547;SDS011;9919;58.014;11.826;2022-12-07T01:39:51;0.75;;;0.75;;
19547;SDS011;9919;58.014;11.826;2022-12-07T01:41:53;0.80;;;0.80;;
19547;SDS011;9919;58.014;11.826;2022-12-07T01:44:11;0.93;;;0.82;;
19547;SDS011;9919;58.014;11.826;2022-12-07T01:46:13;2.25;;;0.77;;
19547;SDS011;9919;58.014;11.826;2022-12-07T01:48:15;0.65;;;0.65;;
19547;SDS011;9919;58.014;11.826;2022-12-07T01:50:18;0.60;;;0.60;;
19547;SDS011;9919;58.014;11.826;2022-12-07T01:52:22;0.63;;;0.63;;
19547;SDS011;9919;58.014;11.826;2022-12-07T01:54:29;0.55;;;0.55;;
19547;SDS011;9919;58.014;11.826;2022-12-07T01:56:31;0.70;;;0.70;;
19547;SDS011;9919;58.014;11.826;2022-12-07T01:58:34;0.70;;;0.70;;
19547;SDS011;9919;58.014;11.826;2022-12-07T02:00:36;1.00;;;0.60;;
19547;SDS011;9919;58.014;11.826;2022-12-07T02:02:51;1.95;;;0.80;;
19547;SDS011;9919;58.014;11.826;2022-12-07T02:04:53;0.40;;;0.40;;
19547;SDS011;9919;58.014;11.826;2022-12-07T02:06:56;0.98;;;0.98;;
19547;SDS011;9919;58.014;11.826;2022-12-07T02:08:58;1.98;;;0.95;;
19547;SDS011;9919;58.014;11.826;2022-12-07T02:11:00;0.60;;;0.60;;
19547;SDS011;9919;58.014;11.826;2022-12-07T02:13:10;0.55;;;0.55;;
19547;SDS011;9919;58.014;11.826;2022-12-07T02:15:16;0.60;;;0.60;;
19547;SDS011;9919;58.014;11.826;2022-12-07T02:17:32;0.93;;;0.80;;
19547;SDS011;9919;58.014;11.826;2022-12-07T02:21:59;0.80;;;0.80;;
19547;SDS011;9919;58.014;11.826;2022-12-07T02:26:55;1.65;;;0.68;;
19547;SDS011;9919;58.014;11.826;2022-12-07T02:29:16;0.50;;;0.50;;
19547;SDS011;9919;58.014;11.826;2022-12-07T02:31:19;0.52;;;0.52;;
19547;SDS011;9919;58.014;11.826;2022-12-07T02:33:24;0.90;;;0.50;;
19547;SDS011;9919;58.014;11.826;2022-12-07T02:35:42;0.95;;;0.63;;
19547;SDS011;9919;58.014;11.826;2022-12-07T02:40:18;0.60;;;0.60;;
19547;SDS011;9919;58.014;11.826;2022-12-07T02:42:24;0.50;;;0.50;;
19547;SDS011;9919;58.014;11.826;2022-12-07T02:44:31;0.98;;;0.60;;
19547;SDS011;9919;58.014;11.826;2022-12-07T02:46:38;0.63;;;0.52;;
19547;SDS011;9919;58.014;11.826;2022-12-07T02:48:42;0.70;;;0.70;;
19547;SDS011;9919;58.014;11.826;2022-12-07T02:50:51;0.63;;;0.60;;
19547;SDS011;9919;58.014;11.826;2022-12-07T02:52:53;0.88;;;0.88;;
19547;SDS011;9919;58.014;11.826;2022-12-07T02:54:55;0.90;;;0.90;;
19547;SDS011;9919;58.014;11.826;2022-12-07T02:57:00;2.40;;;0.80;;
19547;SDS011;9919;58.014;11.826;2022-12-07T03:06:58;0.60;;;0.60;;
19547;SDS011;9919;58.014;11.826;2022-12-07T03:11:15;0.65;;;0.65;;
19547;SDS011;9919;58.014;11.826;2022-12-07T03:13:51;0.35;;;0.35;;
19547;SDS011;9919;58.014;11.826;2022-12-07T03:16:20;0.40;;;0.40;;
19547;SDS011;9919;58.014;11.826;2022-12-07T03:20:53;0.60;;;0.60;;
19547;SDS011;9919;58.014;11.826;2022-12-07T03:22:57;0.73;;;0.73;;
19547;SDS011;9919;58.014;11.826;2022-12-07T03:25:00;0.50;;;0.50;;
19547;SDS011;9919;58.014;11.826;2022-12-07T03:27:09;0.52;;;0.52;;
19547;SDS011;9919;58.014;11.826;2022-12-07T03:29:31;0.45;;;0.45;;
19547;SDS011;9919;58.014;11.826;2022-12-07T03:31:45;0.60;;;0.60;;
19547;SDS011;9919;58.014;11.826;2022-12-07T03:36:03;0.40;;;0.40;;
19547;SDS011;9919;58.014;11.826;2022-12-07T03:40:25;0.73;;;0.73;;
19547;SDS011;9919;58.014;11.826;2022-12-07T03:42:34;0.73;;;0.73;;
19547;SDS011;9919;58.014;11.826;2022-12-07T03:44:35;0.68;;;0.68;;
19547;SDS011;9919;58.014;11.826;2022-12-07T03:51:12;0.77;;;0.77;;
19547;SDS011;9919;58.014;11.826;2022-12-07T03:53:22;0.70;;;0.70;;
19547;SDS011;9919;58.014;11.826;2022-12-07T03:57:31;0.50;;;0.50;;
19547;SDS011;9919;58.014;11.826;2022-12-07T03:59:35;0.55;;;0.50;;
19547;SDS011;9919;58.014;11.826;2022-12-07T04:01:37;0.40;;;0.40;;
19547;SDS011;9919;58.014;11.826;2022-12-07T04:03:39;1.20;;;0.50;;
19547;SDS011;9919;58.014;11.826;2022-12-07T04:05:41;0.60;;;0.60;;
19547;SDS011;9919;58.014;11.826;2022-12-07T04:07:43;0.50;;;0.50;;
19547;SDS011;9919;58.014;11.826;2022-12-07T04:09:45;0.60;;;0.60;;
19547;SDS011;9919;58.014;11.826;2022-12-07T04:11:47;0.50;;;0.50;;
19547;SDS011;9919;58.014;11.826;2022-12-07T04:13:49;0.57;;;0.57;;
19547;SDS011;9919;58.014;11.826;2022-12-07T04:16:09;1.05;;;0.77;;
19547;SDS011;9919;58.014;11.826;2022-12-07T04:18:10;1.00;;;0.47;;
19547;SDS011;9919;58.014;11.826;2022-12-07T04:20:11;0.60;;;0.60;;
19547;SDS011;9919;58.014;11.826;2022-12-07T04:22:13;0.80;;;0.80;;
19547;SDS011;9919;58.014;11.826;2022-12-07T04:24:14;0.38;;;0.38;;
19547;SDS011;9919;58.014;11.826;2022-12-07T04:26:17;0.38;;;0.35;;
19547;SDS011;9919;58.014;11.826;2022-12-07T04:28:19;0.40;;;0.40;;
19547;SDS011;9919;58.014;11.826;2022-12-07T04:30:20;0.50;;;0.50;;
19547;SDS011;9919;58.014;11.826;2022-12-07T04:32:22;0.98;;;0.60;;
19547;SDS011;9919;58.014;11.826;2022-12-07T04:34:25;0.30;;;0.30;;
19547;SDS011;9919;58.014;11.826;2022-12-07T04:36:27;0.55;;;0.55;;
19547;SDS011;9919;58.014;11.826;2022-12-07T04:38:29;0.40;;;0.40;;
19547;SDS011;9919;58.014;11.826;2022-12-07T04:40:31;0.30;;;0.30;;
19547;SDS011;9919;58.014;11.826;2022-12-07T04:42:34;0.47;;;0.47;;
19547;SDS011;9919;58.014;11.826;2022-12-07T04:44:37;0.60;;;0.60;;
19547;SDS011;9919;58.014;11.826;2022-12-07T04:46:39;0.50;;;0.50;;
19547;SDS011;9919;58.014;11.826;2022-12-07T04:48:40;0.40;;;0.40;;
19547;SDS011;9919;58.014;11.826;2022-12-07T04:50:42;1.00;;;0.50;;
19547;SDS011;9919;58.014;11.826;2022-12-07T04:52:43;0.50;;;0.50;;
19547;SDS011;9919;58.014;11.826;2022-12-07T04:54:44;0.60;;;0.60;;
19547;SDS011;9919;58.014;11.826;2022-12-07T04:56:47;1.83;;;0.50;;
19547;SDS011;9919;58.014;11.826;2022-12-07T04:58:49;1.80;;;0.47;;
19547;SDS011;9919;58.014;11.826;2022-12-07T05:00:53;0.80;;;0.63;;
19547;SDS011;9919;58.014;11.826;2022-12-07T05:02:55;0.45;;;0.45;;
19547;SDS011;9919;58.014;11.826;2022-12-07T05:04:56;0.47;;;0.47;;
19547;SDS011;9919;58.014;11.826;2022-12-07T05:06:57;0.50;;;0.50;;
19547;SDS011;9919;58.014;11.826;2022-12-07T05:08:59;0.43;;;0.43;;
19547;SDS011;9919;58.014;11.826;2022-12-07T05:11:02;0.47;;;0.40;;
19547;SDS011;9919;58.014;11.826;2022-12-07T05:13:04;0.40;;;0.40;;
19547;SDS011;9919;58.014;11.826;2022-12-07T05:15:06;0.20;;;0.20;;
19547;SDS011;9919;58.014;11.826;2022-12-07T05:17:07;0.35;;;0.30;;
19547;SDS011;9919;58.014;11.826;2022-12-07T05:19:10;0.70;;;0.70;;
19547;SDS011;9919;58.014;11.826;2022-12-07T05:21:11;0.40;;;0.40;;
19547;SDS011;9919;58.014;11.826;2022-12-07T05:23:12;1.35;;;0.50;;
19547;SDS011;9919;58.014;11.826;2022-12-07T05:25:14;0.30;;;0.30;;
19547;SDS011;9919;58.014;11.826;2022-12-07T05:27:15;1.85;;;0.73;;
19547;SDS011;9919;58.014;11.826;2022-12-07T05:29:16;0.60;;;0.57;;
19547;SDS011;9919;58.014;11.826;2022-12-07T05:31:18;0.35;;;0.35;;
19547;SDS011;9919;58.014;11.826;2022-12-07T05:33:20;0.35;;;0.35;;
19547;SDS011;9919;58.014;11.826;2022-12-07T05:35:21;0.40;;;0.40;;
19547;SDS011;9919;58.014;11.826;2022-12-07T05:37:22;1.17;;;0.50;;
19547;SDS011;9919;58.014;11.826;2022-12-07T05:39:24;0.47;;;0.47;;
19547;SDS011;9919;58.014;11.826;2022-12-07T05:41:25;1.15;;;0.30;;
19547;SDS011;9919;58.014;11.826;2022-12-07T05:43:45;1.17;;;1.00;;
19547;SDS011;9919;58.014;11.826;2022-12-07T05:45:47;0.40;;;0.40;;
19547;SDS011;9919;58.014;11.826;2022-12-07T05:47:50;2.35;;;0.80;;
19547;SDS011;9919;58.014;11.826;2022-12-07T05:49:51;0.57;;;0.43;;
19547;SDS011;9919;58.014;11.826;2022-12-07T05:51:52;1.13;;;0.73;;
19547;SDS011;9919;58.014;11.826;2022-12-07T05:53:54;0.77;;;0.77;;
19547;SDS011;9919;58.014;11.826;2022-12-07T05:55:55;1.38;;;0.40;;
19547;SDS011;9919;58.014;11.826;2022-12-07T05:57:57;0.65;;;0.63;;
19547;SDS011;9919;58.014;11.826;2022-12-07T06:00:16;0.50;;;0.50;;
19547;SDS011;9919;58.014;11.826;2022-12-07T06:02:18;0.38;;;0.38;;
19547;SDS011;9919;58.014;11.826;2022-12-07T06:04:20;1.13;;;0.60;;
19547;SDS011;9919;58.014;11.826;2022-12-07T06:06:21;2.58;;;0.50;;
19547;SDS011;9919;58.014;11.826;2022-12-07T06:08:23;0.22;;;0.22;;
19547;SDS011;9919;58.014;11.826;2022-12-07T06:10:24;0.50;;;0.50;;
19547;SDS011;9919;58.014;11.826;2022-12-07T06:12:25;1.75;;;0.40;;
19547;SDS011;9919;58.014;11.826;2022-12-07T06:14:33;0.85;;;0.43;;
19547;SDS011;9919;58.014;11.826;2022-12-07T06:16:35;0.30;;;0.30;;
19547;SDS011;9919;58.014;11.826;2022-12-07T06:18:37;0.70;;;0.70;;
19547;SDS011;9919;58.014;11.826;2022-12-07T06:20:38;0.73;;;0.73;;
19547;SDS011;9919;58.014;11.826;2022-12-07T06:22:40;3.92;;;0.60;;
19547;SDS011;9919;58.014;11.826;2022-12-07T06:24:42;1.50;;;0.60;;
19547;SDS011;9919;58.014;11.826;2022-12-07T06:26:44;0.35;;;0.35;;
19547;SDS011;9919;58.014;11.826;2022-12-07T06:28:46;0.73;;;0.55;;
19547;SDS011;9919;58.014;11.826;2022-12-07T06:30:47;1.30;;;0.90;;
19547;SDS011;9919;58.014;11.826;2022-12-07T06:32:58;0.30;;;0.30;;
19547;SDS011;9919;58.014;11.826;2022-12-07T06:34:59;2.40;;;0.43;;
19547;SDS011;9919;58.014;11.826;2022-12-07T06:37:01;0.70;;;0.50;;
19547;SDS011;9919;58.014;11.826;2022-12-07T06:39:02;0.57;;;0.57;;
19547;SDS011;9919;58.014;11.826;2022-12-07T06:41:05;0.98;;;0.60;;
19547;SDS011;9919;58.014;11.826;2022-12-07T06:43:07;0.73;;;0.70;;
19547;SDS011;9919;58.014;11.826;2022-12-07T06:45:08;0.40;;;0.40;;
19547;SDS011;9919;58.014;11.826;2022-12-07T06:47:10;0.82;;;0.40;;
19547;SDS011;9919;58.014;11.826;2022-12-07T06:49:11;0.65;;;0.50;;
19547;SDS011;9919;58.014;11.826;2022-12-07T06:51:13;0.75;;;0.75;;
19547;SDS011;9919;58.014;11.826;2022-12-07T06:53:15;1.95;;;0.20;;
19547;SDS011;9919;58.014;11.826;2022-12-07T06:55:16;0.25;;;0.25;;
19547;SDS011;9919;58.014;11.826;2022-12-07T06:57:18;0.73;;;0.43;;
19547;SDS011;9919;58.014;11.826;2022-12-07T06:59:20;0.20;;;0.20;;
19547;SDS011;9919;58.014;11.826;2022-12-07T07:01:22;0.40;;;0.40;;
19547;SDS011;9919;58.014;11.826;2022-12-07T07:03:24;0.30;;;0.30;;
19547;SDS011;9919;58.014;11.826;2022-12-07T07:05:26;0.30;;;0.30;;
19547;SDS011;9919;58.014;11.826;2022-12-07T07:07:27;0.57;;;0.43;;
19547;SDS011;9919;58.014;11.826;2022-12-07T07:09:28;0.52;;;0.40;;
19547;SDS011;9919;58.014;11.826;2022-12-07T07:11:29;0.47;;;0.32;;
19547;SDS011;9919;58.014;11.826;2022-12-07T07:13:31;2.58;;;0.32;;
19547;SDS011;9919;58.014;11.826;2022-12-07T07:15:33;0.52;;;0.50;;
19547;SDS011;9919;58.014;11.826;2022-12-07T07:17:35;0.30;;;0.30;;
19547;SDS011;9919;58.014;11.826;2022-12-07T07:19:36;0.57;;;0.43;;
19547;SDS011;9919;58.014;11.826;2022-12-07T07:21:38;0.30;;;0.30;;
19547;SDS011;9919;58.014;11.826;2022-12-07T07:23:40;1.05;;;0.88;;
19547;SDS011;9919;58.014;11.826;2022-12-07T07:25:41;0.30;;;0.30;;
19547;SDS011;9919;58.014;11.826;2022-12-07T07:27:42;0.40;;;0.40;;
19547;SDS011;9919;58.014;11.826;2022-12-07T07:29:44;1.02;;;0.50;;
19547;SDS011;9919;58.014;11.826;2022-12-07T07:31:45;0.60;;;0.60;;
19547;SDS011;9919;58.014;11.826;2022-12-07T07:33:46;0.50;;;0.50;;
19547;SDS011;9919;58.014;11.826;2022-12-07T07:35:48;1.13;;;0.40;;
19547;SDS011;9919;58.014;11.826;2022-12-07T07:37:50;0.30;;;0.30;;
19547;SDS011;9919;58.014;11.826;2022-12-07T07:39:51;0.73;;;0.60;;
19547;SDS011;9919;58.014;11.826;2022-12-07T07:41:52;0.52;;;0.50;;
19547;SDS011;9919;58.014;11.826;2022-12-07T07:43:54;0.65;;;0.43;;
19547;SDS011;9919;58.014;11.826;2022-12-07T07:45:55;0.52;;;0.50;;
19547;SDS011;9919;58.014;11.826;2022-12-07T07:47:56;1.27;;;0.60;;
19547;SDS011;9919;58.014;11.826;2022-12-07T07:49:58;1.15;;;0.35;;
19547;SDS011;9919;58.014;11.826;2022-12-07T07:51:59;2.08;;;0.30;;
19547;SDS011;9919;58.014;11.826;2022-12-07T07:54:00;0.40;;;0.40;;
19547;SDS011;9919;58.014;11.826;2022-12-07T07:56:03;0.85;;;0.35;;
19547;SDS011;9919;58.014;11.826;2022-12-07T07:58:05;0.70;;;0.50;;
19547;SDS011;9919;58.014;11.826;2022-12-07T08:00:08;0.55;;;0.55;;
19547;SDS011;9919;58.014;11.826;2022-12-07T08:02:18;0.40;;;0.20;;
19547;SDS011;9919;58.014;11.826;2022-12-07T08:04:21;0.40;;;0.40;;
19547;SDS011;9919;58.014;11.826;2022-12-07T08:06:23;0.43;;;0.43;;
19547;SDS011;9919;58.014;11.826;2022-12-07T08:08:24;0.40;;;0.40;;
19547;SDS011;9919;58.014;11.826;2022-12-07T08:10:26;1.13;;;0.60;;
19547;SDS011;9919;58.014;11.826;2022-12-07T08:12:28;0.40;;;0.40;;
19547;SDS011;9919;58.014;11.826;2022-12-07T08:14:29;0.40;;;0.40;;
19547;SDS011;9919;58.014;11.826;2022-12-07T08:16:31;0.40;;;0.40;;
19547;SDS011;9919;58.014;11.826;2022-12-07T08:18:36;0.57;;;0.57;;
19547;SDS011;9919;58.014;11.826;2022-12-07T08:20:41;0.22;;;0.22;;
19547;SDS011;9919;58.014;11.826;2022-12-07T08:22:43;0.30;;;0.30;;
19547;SDS011;9919;58.014;11.826;2022-12-07T08:24:44;0.45;;;0.45;;
19547;SDS011;9919;58.014;11.826;2022-12-07T08:26:45;0.30;;;0.30;;
19547;SDS011;9919;58.014;11.826;2022-12-07T08:28:47;0.40;;;0.40;;
19547;SDS011;9919;58.014;11.826;2022-12-07T08:30:48;0.30;;;0.30;;
19547;SDS011;9919;58.014;11.826;2022-12-07T08:32:49;0.30;;;0.30;;
19547;SDS011;9919;58.014;11.826;2022-12-07T08:34:51;0.43;;;0.43;;
19547;SDS011;9919;58.014;11.826;2022-12-07T08:36:53;1.20;;;0.57;;
19547;SDS011;9919;58.014;11.826;2022-12-07T08:38:54;2.47;;;0.50;;
19547;SDS011;9919;58.014;11.826;2022-12-07T08:40:56;0.80;;;0.57;;
19547;SDS011;9919;58.014;11.826;2022-12-07T08:42:58;0.47;;;0.47;;
19547;SDS011;9919;58.014;11.826;2022-12-07T08:44:59;0.50;;;0.50;;
19547;SDS011;9919;58.014;11.826;2022-12-07T08:47:02;0.20;;;0.20;;
19547;SDS011;9919;58.014;11.826;2022-12-07T08:51:06;2.30;;;0.68;;
19547;SDS011;9919;58.014;11.826;2022-12-07T08:53:08;2.05;;;0.63;;
19547;SDS011;9919;58.014;11.826;2022-12-07T08:55:10;0.63;;;0.50;;
19547;SDS011;9919;58.014;11.826;2022-12-07T08:57:12;0.52;;;0.45;;
19547;SDS011;9919;58.014;11.826;2022-12-07T08:59:14;0.38;;;0.35;;
19547;SDS011;9919;58.014;11.826;2022-12-07T09:01:16;0.20;;;0.20;;
19547;SDS011;9919;58.014;11.826;2022-12-07T09:03:17;0.47;;;0.47;;
19547;SDS011;9919;58.014;11.826;2022-12-07T09:05:18;0.25;;;0.25;;
19547;SDS011;9919;58.014;11.826;2022-12-07T09:07:20;0.30;;;0.30;;
19547;SDS011;9919;58.014;11.826;2022-12-07T09:09:22;0.75;;;0.50;;
19547;SDS011;9919;58.014;11.826;2022-12-07T09:11:24;2.95;;;0.50;;
19547;SDS011;9919;58.014;11.826;2022-12-07T09:13:26;1.45;;;0.50;;
19547;SDS011;9919;58.014;11.826;2022-12-07T09:15:29;0.40;;;0.40;;
19547;SDS011;9919;58.014;11.826;2022-12-07T09:17:34;6.47;;;0.88;;
19547;SDS011;9919;58.014;11.826;2022-12-07T09:19:36;0.73;;;0.60;;
19547;SDS011;9919;58.014;11.826;2022-12-07T09:21:38;0.55;;;0.55;;
19547;SDS011;9919;58.014;11.826;2022-12-07T09:23:40;0.50;;;0.50;;
19547;SDS011;9919;58.014;11.826;2022-12-07T09:25:42;2.22;;;0.50;;
19547;SDS011;9919;58.014;11.826;2022-12-07T09:27:44;1.75;;;0.60;;
19547;SDS011;9919;58.014;11.826;2022-12-07T09:29:45;1.05;;;0.47;;
19547;SDS011;9919;58.014;11.826;2022-12-07T09:31:46;0.40;;;0.40;;
19547;SDS011;9919;58.014;11.826;2022-12-07T09:33:52;0.40;;;0.40;;
19547;SDS011;9919;58.014;11.826;2022-12-07T09:35:55;0.77;;;0.50;;
19547;SDS011;9919;58.014;11.826;2022-12-07T09:37:56;1.55;;;0.50;;
19547;SDS011;9919;58.014;11.826;2022-12-07T09:39:58;3.28;;;0.60;;
19547;SDS011;9919;58.014;11.826;2022-12-07T09:42:03;0.45;;;0.35;;
19547;SDS011;9919;58.014;11.826;2022-12-07T09:44:17;2.38;;;0.60;;
19547;SDS011;9919;58.014;11.826;2022-12-07T09:46:23;0.35;;;0.35;;
19547;SDS011;9919;58.014;11.826;2022-12-07T09:48:34;1.75;;;0.40;;
19547;SDS011;9919;58.014;11.826;2022-12-07T09:50:39;1.52;;;0.70;;
19547;SDS011;9919;58.014;11.826;2022-12-07T09:52:41;0.65;;;0.57;;
19547;SDS011;9919;58.014;11.826;2022-12-07T09:54:44;4.78;;;0.75;;
19547;SDS011;9919;58.014;11.826;2022-12-07T09:56:47;2.60;;;0.52;;
19547;SDS011;9919;58.014;11.826;2022-12-07T09:58:50;1.65;;;0.43;;
19547;SDS011;9919;58.014;11.826;2022-12-07T10:03:09;3.40;;;0.68;;
19547;SDS011;9919;58.014;11.826;2022-12-07T10:05:16;0.38;;;0.38;;
19547;SDS011;9919;58.014;11.826;2022-12-07T10:07:23;0.98;;;0.45;;
19547;SDS011;9919;58.014;11.826;2022-12-07T10:09:25;0.52;;;0.52;;
19547;SDS011;9919;58.014;11.826;2022-12-07T10:11:29;0.57;;;0.35;;
19547;SDS011;9919;58.014;11.826;2022-12-07T10:13:34;1.20;;;0.65;;
19547;SDS011;9919;58.014;11.826;2022-12-07T10:15:44;0.55;;;0.43;;
19547;SDS011;9919;58.014;11.826;2022-12-07T10:17:50;1.75;;;0.65;;
19547;SDS011;9919;58.014;11.826;2022-12-07T10:19:52;0.30;;;0.30;;
19547;SDS011;9919;58.014;11.826;2022-12-07T10:22:14;0.40;;;0.40;;
19547;SDS011;9919;58.014;11.826;2022-12-07T10:24:16;0.90;;;0.30;;
19547;SDS011;9919;58.014;11.826;2022-12-07T10:26:41;0.40;;;0.40;;
19547;SDS011;9919;58.014;11.826;2022-12-07T10:28:46;1.60;;;0.65;;
19547;SDS011;9919;58.014;11.826;2022-12-07T10:32:53;1.13;;;0.60;;
19547;SDS011;9919;58.014;11.826;2022-12-07T10:35:18;1.52;;;0.70;;
19547;SDS011;9919;58.014;11.826;2022-12-07T10:37:19;0.30;;;0.30;;
19547;SDS011;9919;58.014;11.826;2022-12-07T10:39:25;1.10;;;0.80;;
19547;SDS011;9919;58.014;11.826;2022-12-07T10:41:27;1.17;;;0.50;;
19547;SDS011;9919;58.014;11.826;2022-12-07T10:43:28;2.67;;;0.70;;
19547;SDS011;9919;58.014;11.826;2022-12-07T10:45:29;2.00;;;0.65;;
19547;SDS011;9919;58.014;11.826;2022-12-07T10:55:17;0.60;;;0.52;;
19547;SDS011;9919;58.014;11.826;2022-12-07T10:59:46;1.13;;;0.50;;
19547;SDS011;9919;58.014;11.826;2022-12-07T11:11:48;0.30;;;0.30;;
19547;SDS011;9919;58.014;11.826;2022-12-07T11:18:41;0.30;;;0.30;;
19547;SDS011;9919;58.014;11.826;2022-12-07T11:20:58;0.50;;;0.50;;
19547;SDS011;9919;58.014;11.826;2022-12-07T11:23:11;0.55;;;0.55;;
19547;SDS011;9919;58.014;11.826;2022-12-07T11:30:02;0.50;;;0.50;;
19547;SDS011;9919;58.014;11.826;2022-12-07T11:36:49;0.38;;;0.38;;
19547;SDS011;9919;58.014;11.826;2022-12-07T11:38:53;0.30;;;0.30;;
19547;SDS011;9919;58.014;11.826;2022-12-07T11:41:01;0.65;;;0.40;;
19547;SDS011;9919;58.014;11.826;2022-12-07T11:45:32;0.77;;;0.70;;
19547;SDS011;9919;58.014;11.826;2022-12-07T11:47:36;0.70;;;0.57;;
19547;SDS011;9919;58.014;11.826;2022-12-07T11:51:54;0.60;;;0.40;;
19547;SDS011;9919;58.014;11.826;2022-12-07T11:54:00;0.50;;;0.50;;
19547;SDS011;9919;58.014;11.826;2022-12-07T11:56:10;1.70;;;0.50;;
19547;SDS011;9919;58.014;11.826;2022-12-07T12:00:41;1.65;;;0.43;;
19547;SDS011;9919;58.014;11.826;2022-12-07T12:07:19;0.50;;;0.50;;
19547;SDS011;9919;58.014;11.826;2022-12-07T12:09:29;0.20;;;0.20;;
19547;SDS011;9919;58.014;11.826;2022-12-07T12:17:05;2.00;;;0.40;;
19547;SDS011;9919;58.014;11.826;2022-12-07T12:18:58;0.40;;;0.40;;
19547;SDS011;9919;58.014;11.826;2022-12-07T12:21:17;1.80;;;0.60;;
19547;SDS011;9919;58.014;11.826;2022-12-07T12:23:21;0.57;;;0.57;;
19547;SDS011;9919;58.014;11.826;2022-12-07T12:25:51;2.80;;;0.50;;
19547;SDS011;9919;58.014;11.826;2022-12-07T12:28:00;0.32;;;0.32;;
19547;SDS011;9919;58.014;11.826;2022-12-07T12:30:06;0.40;;;0.40;;
19547;SDS011;9919;58.014;11.826;2022-12-07T12:32:30;1.55;;;0.50;;
19547;SDS011;9919;58.014;11.826;2022-12-07T12:36:50;0.65;;;0.50;;
19547;SDS011;9919;58.014;11.826;2022-12-07T12:41:02;0.60;;;0.60;;
19547;SDS011;9919;58.014;11.826;2022-12-07T12:43:14;2.90;;;0.50;;
19547;SDS011;9919;58.014;11.826;2022-12-07T12:45:43;0.25;;;0.25;;
19547;SDS011;9919;58.014;11.826;2022-12-07T12:54:38;0.45;;;0.45;;
19547;SDS011;9919;58.014;11.826;2022-12-07T13:03:39;0.45;;;0.45;;
19547;SDS011;9919;58.014;11.826;2022-12-07T13:08:18;0.75;;;0.43;;
19547;SDS011;9919;58.014;11.826;2022-12-07T13:12:28;0.20;;;0.20;;
19547;SDS011;9919;58.014;11.826;2022-12-07T13:16:40;0.40;;;0.40;;
19547;SDS011;9919;58.014;11.826;2022-12-07T13:18:42;0.55;;;0.47;;
19547;SDS011;9919;58.014;11.826;2022-12-07T13:20:47;0.35;;;0.35;;
19547;SDS011;9919;58.014;11.826;2022-12-07T13:22:52;0.52;;;0.43;;
19547;SDS011;9919;58.014;11.826;2022-12-07T13:24:56;0.65;;;0.57;;
19547;SDS011;9919;58.014;11.826;2022-12-07T13:26:58;0.40;;;0.40;;
19547;SDS011;9919;58.014;11.826;2022-12-07T13:31:19;0.30;;;0.30;;
19547;SDS011;9919;58.014;11.826;2022-12-07T13:33:32;0.60;;;0.40;;
19547;SDS011;9919;58.014;11.826;2022-12-07T13:35:36;0.40;;;0.40;;
19547;SDS011;9919;58.014;11.826;2022-12-07T13:37:38;0.38;;;0.38;;
19547;SDS011;9919;58.014;11.826;2022-12-07T13:41:56;0.30;;;0.30;;
19547;SDS011;9919;58.014;11.826;2022-12-07T13:44:01;0.40;;;0.40;;
19547;SDS011;9919;58.014;11.826;2022-12-07T13:46:06;0.60;;;0.60;;
19547;SDS011;9919;58.014;11.826;2022-12-07T13:48:21;3.80;;;1.40;;
19547;SDS011;9919;58.014;11.826;2022-12-07T13:50:56;1.48;;;1.38;;
19547;SDS011;9919;58.014;11.826;2022-12-07T13:52:58;1.63;;;1.52;;
19547;SDS011;9919;58.014;11.826;2022-12-07T13:55:22;2.08;;;1.90;;
19547;SDS011;9919;58.014;11.826;2022-12-07T13:57:24;1.70;;;1.60;;
19547;SDS011;9919;58.014;11.826;2022-12-07T13:59:26;1.58;;;1.48;;
19547;SDS011;9919;58.014;11.826;2022-12-07T14:01:30;1.58;;;1.48;;
19547;SDS011;9919;58.014;11.826;2022-12-07T14:03:33;1.70;;;1.60;;
19547;SDS011;9919;58.014;11.826;2022-12-07T14:05:42;2.42;;;1.67;;
19547;SDS011;9919;58.014;11.826;2022-12-07T14:09:59;1.83;;;1.13;;
19547;SDS011;9919;58.014;11.826;2022-12-07T14:12:05;1.80;;;1.48;;
19547;SDS011;9919;58.014;11.826;2022-12-07T14:14:11;1.10;;;1.08;;
19547;SDS011;9919;58.014;11.826;2022-12-07T14:18:43;1.55;;;1.23;;
19547;SDS011;9919;58.014;11.826;2022-12-07T14:20:44;0.73;;;0.73;;
19547;SDS011;9919;58.014;11.826;2022-12-07T14:22:54;1.00;;;1.00;;
19547;SDS011;9919;58.014;11.826;2022-12-07T14:24:59;0.82;;;0.82;;
19547;SDS011;9919;58.014;11.826;2022-12-07T14:27:04;0.90;;;0.90;;
19547;SDS011;9919;58.014;11.826;2022-12-07T14:29:18;1.00;;;1.00;;
19547;SDS011;9919;58.014;11.826;2022-12-07T14:31:21;1.25;;;1.15;;